sensor_id;sensor_type;location;lat;lon;timestamp;temperature;humidity
3644;DHT22;1838;50.742;7.158;2023-11-21T00:00:44;10.20;99.90
3644;DHT22;1838;50.742;7.158;2023-11-21T00:03:11;10.20;99.90
3644;DHT22;1838;50.742;7.158;2023-11-21T00:05:40;10.20;99.90
3644;DHT22;1838;50.742;7.158;2023-11-21T00:08:07;10.20;99.90
3644;DHT22;1838;50.742;7.158;2023-11-21T00:10:32;10.20;99.90
3644;DHT22;1838;50.742;7.158;2023-11-21T00:12:58;10.30;99.90
3644;DHT22;1838;50.742;7.158;2023-11-21T00:15:23;10.30;99.90
3644;DHT22;1838;50.742;7.158;2023-11-21T00:17:49;10.30;99.90
3644;DHT22;1838;50.742;7.158;2023-11-21T00:20:15;10.30;99.90
3644;DHT22;1838;50.742;7.158;2023-11-21T00:22:41;10.30;99.90
3644;DHT22;1838;50.742;7.158;2023-11-21T00:25:07;10.40;99.90
3644;DHT22;1838;50.742;7.158;2023-11-21T00:27:35;10.40;99.90
3644;DHT22;1838;50.742;7.158;2023-11-21T00:30:00;10.50;99.90
3644;DHT22;1838;50.742;7.158;2023-11-21T00:32:26;10.50;99.90
3644;DHT22;1838;50.742;7.158;2023-11-21T00:34:51;10.60;99.90
3644;DHT22;1838;50.742;7.158;2023-11-21T00:37:17;10.60;99.90
3644;DHT22;1838;50.742;7.158;2023-11-21T00:39:42;10.60;99.90
3644;DHT22;1838;50.742;7.158;2023-11-21T00:42:08;10.60;99.90
3644;DHT22;1838;50.742;7.158;2023-11-21T00:44:34;10.70;99.90
3644;DHT22;1838;50.742;7.158;2023-11-21T00:47:03;10.60;99.90
3644;DHT22;1838;50.742;7.158;2023-11-21T00:49:28;10.70;99.90
3644;DHT22;1838;50.742;7.158;2023-11-21T00:51:54;10.70;99.90
3644;DHT22;1838;50.742;7.158;2023-11-21T00:54:19;10.70;99.90
3644;DHT22;1838;50.742;7.158;2023-11-21T00:56:45;10.70;99.90
3644;DHT22;1838;50.742;7.158;2023-11-21T00:59:12;10.80;99.90
3644;DHT22;1838;50.742;7.158;2023-11-21T01:01:38;10.80;99.90
3644;DHT22;1838;50.742;7.158;2023-11-21T01:04:03;10.80;99.90
3644;DHT22;1838;50.742;7.158;2023-11-21T01:06:29;10.70;99.90
3644;DHT22;1838;50.742;7.158;2023-11-21T01:08:55;10.70;99.90
3644;DHT22;1838;50.742;7.158;2023-11-21T01:11:21;10.70;99.90
3644;DHT22;1838;50.742;7.158;2023-11-21T01:13:46;10.70;99.90
3644;DHT22;1838;50.742;7.158;2023-11-21T01:16:12;10.60;99.90
3644;DHT22;1838;50.742;7.158;2023-11-21T01:18:37;10.60;99.90
3644;DHT22;1838;50.742;7.158;2023-11-21T01:21:03;10.60;99.90
3644;DHT22;1838;50.742;7.158;2023-11-21T01:23:29;10.60;99.90
3644;DHT22;1838;50.742;7.158;2023-11-21T01:25:56;10.60;99.90
3644;DHT22;1838;50.742;7.158;2023-11-21T01:28:21;10.60;99.90
3644;DHT22;1838;50.742;7.158;2023-11-21T01:30:48;10.60;99.90
3644;DHT22;1838;50.742;7.158;2023-11-21T01:33:14;10.70;99.90
3644;DHT22;1838;50.742;7.158;2023-11-21T01:35:41;10.70;99.90
3644;DHT22;1838;50.742;7.158;2023-11-21T01:38:07;10.60;99.90
3644;DHT22;1838;50.742;7.158;2023-11-21T01:40:34;10.60;99.90
3644;DHT22;1838;50.742;7.158;2023-11-21T01:43:00;10.60;99.90
3644;DHT22;1838;50.742;7.158;2023-11-21T01:45:25;10.70;99.90
3644;DHT22;1838;50.742;7.158;2023-11-21T01:47:51;10.70;99.90
3644;DHT22;1838;50.742;7.158;2023-11-21T01:50:18;10.60;99.90
3644;DHT22;1838;50.742;7.158;2023-11-21T01:52:45;10.60;99.90
3644;DHT22;1838;50.742;7.158;2023-11-21T01:55:11;10.70;99.90
3644;DHT22;1838;50.742;7.158;2023-11-21T01:57:38;10.60;99.90
3644;DHT22;1838;50.742;7.158;2023-11-21T02:00:04;10.50;99.90
3644;DHT22;1838;50.742;7.158;2023-11-21T02:02:44;10.60;99.90
3644;DHT22;1838;50.742;7.158;2023-11-21T02:05:19;10.50;99.90
3644;DHT22;1838;50.742;7.158;2023-11-21T02:07:47;10.40;99.90
3644;DHT22;1838;50.742;7.158;2023-11-21T02:10:18;10.40;99.90
3644;DHT22;1838;50.742;7.158;2023-11-21T02:12:48;10.50;99.90
3644;DHT22;1838;50.742;7.158;2023-11-21T02:15:16;10.50;99.90
3644;DHT22;1838;50.742;7.158;2023-11-21T02:17:49;10.50;99.90
3644;DHT22;1838;50.742;7.158;2023-11-21T02:20:20;10.50;99.90
3644;DHT22;1838;50.742;7.158;2023-11-21T02:23:03;10.50;99.90
3644;DHT22;1838;50.742;7.158;2023-11-21T02:25:32;10.50;99.90
3644;DHT22;1838;50.742;7.158;2023-11-21T02:27:59;10.50;99.90
3644;DHT22;1838;50.742;7.158;2023-11-21T02:30:25;10.50;99.90
3644;DHT22;1838;50.742;7.158;2023-11-21T02:32:53;10.50;99.90
3644;DHT22;1838;50.742;7.158;2023-11-21T02:35:19;10.50;99.90
3644;DHT22;1838;50.742;7.158;2023-11-21T02:37:49;10.60;99.90
3644;DHT22;1838;50.742;7.158;2023-11-21T02:40:15;10.60;99.90
3644;DHT22;1838;50.742;7.158;2023-11-21T02:42:46;10.60;99.90
3644;DHT22;1838;50.742;7.158;2023-11-21T02:45:13;10.50;99.90
3644;DHT22;1838;50.742;7.158;2023-11-21T02:47:39;10.50;99.90
3644;DHT22;1838;50.742;7.158;2023-11-21T02:50:05;10.60;99.90
3644;DHT22;1838;50.742;7.158;2023-11-21T02:52:33;10.60;99.90
3644;DHT22;1838;50.742;7.158;2023-11-21T02:54:59;10.60;99.90
3644;DHT22;1838;50.742;7.158;2023-11-21T02:57:24;10.60;99.90
3644;DHT22;1838;50.742;7.158;2023-11-21T02:59:50;10.70;99.90
3644;DHT22;1838;50.742;7.158;2023-11-21T03:02:16;10.60;99.90
3644;DHT22;1838;50.742;7.158;2023-11-21T03:04:41;10.50;99.90
3644;DHT22;1838;50.742;7.158;2023-11-21T03:07:08;10.60;99.90
3644;DHT22;1838;50.742;7.158;2023-11-21T03:09:34;10.60;99.90
3644;DHT22;1838;50.742;7.158;2023-11-21T03:12:00;10.70;99.90
3644;DHT22;1838;50.742;7.158;2023-11-21T03:14:25;10.60;99.90
3644;DHT22;1838;50.742;7.158;2023-11-21T03:16:51;10.60;99.90
3644;DHT22;1838;50.742;7.158;2023-11-21T03:19:16;10.60;99.90
3644;DHT22;1838;50.742;7.158;2023-11-21T03:21:42;10.60;99.90
3644;DHT22;1838;50.742;7.158;2023-11-21T03:24:08;10.60;99.90
3644;DHT22;1838;50.742;7.158;2023-11-21T03:26:33;10.60;99.90
3644;DHT22;1838;50.742;7.158;2023-11-21T03:28:59;10.60;99.90
3644;DHT22;1838;50.742;7.158;2023-11-21T03:31:25;10.60;99.90
3644;DHT22;1838;50.742;7.158;2023-11-21T03:33:50;10.60;99.90
3644;DHT22;1838;50.742;7.158;2023-11-21T03:36:16;10.60;99.90
3644;DHT22;1838;50.742;7.158;2023-11-21T03:38:43;10.60;99.90
3644;DHT22;1838;50.742;7.158;2023-11-21T03:41:08;10.60;99.90
3644;DHT22;1838;50.742;7.158;2023-11-21T03:43:37;10.50;99.90
3644;DHT22;1838;50.742;7.158;2023-11-21T03:46:03;10.40;99.90
3644;DHT22;1838;50.742;7.158;2023-11-21T03:48:29;10.40;99.90
3644;DHT22;1838;50.742;7.158;2023-11-21T03:50:54;10.20;99.90
3644;DHT22;1838;50.742;7.158;2023-11-21T03:53:20;10.30;99.90
3644;DHT22;1838;50.742;7.158;2023-11-21T03:55:45;10.30;99.90
3644;DHT22;1838;50.742;7.158;2023-11-21T03:58:11;10.30;99.90
3644;DHT22;1838;50.742;7.158;2023-11-21T04:00:36;10.30;99.90
3644;DHT22;1838;50.742;7.158;2023-11-21T04:03:02;10.30;99.90
3644;DHT22;1838;50.742;7.158;2023-11-21T04:05:28;10.40;99.90
3644;DHT22;1838;50.742;7.158;2023-11-21T04:07:54;10.40;99.90
3644;DHT22;1838;50.742;7.158;2023-11-21T04:10:19;10.40;99.90
3644;DHT22;1838;50.742;7.158;2023-11-21T04:12:45;10.40;99.90
3644;DHT22;1838;50.742;7.158;2023-11-21T04:15:11;10.40;99.90
3644;DHT22;1838;50.742;7.158;2023-11-21T04:17:38;10.40;99.90
3644;DHT22;1838;50.742;7.158;2023-11-21T04:20:05;10.40;99.90
3644;DHT22;1838;50.742;7.158;2023-11-21T04:22:36;10.50;99.90
3644;DHT22;1838;50.742;7.158;2023-11-21T04:25:01;10.50;99.90
3644;DHT22;1838;50.742;7.158;2023-11-21T04:27:27;10.50;99.90
3644;DHT22;1838;50.742;7.158;2023-11-21T04:29:53;10.50;99.90
3644;DHT22;1838;50.742;7.158;2023-11-21T04:32:18;10.40;99.90
3644;DHT22;1838;50.742;7.158;2023-11-21T04:34:43;10.40;99.90
3644;DHT22;1838;50.742;7.158;2023-11-21T04:37:09;10.40;99.90
3644;DHT22;1838;50.742;7.158;2023-11-21T04:39:35;10.50;99.90
3644;DHT22;1838;50.742;7.158;2023-11-21T04:42:01;10.50;99.90
3644;DHT22;1838;50.742;7.158;2023-11-21T04:44:27;10.50;99.90
3644;DHT22;1838;50.742;7.158;2023-11-21T04:46:53;10.50;99.90
3644;DHT22;1838;50.742;7.158;2023-11-21T04:49:18;10.40;99.90
3644;DHT22;1838;50.742;7.158;2023-11-21T04:51:43;10.40;99.90
3644;DHT22;1838;50.742;7.158;2023-11-21T04:54:09;10.50;99.90
3644;DHT22;1838;50.742;7.158;2023-11-21T04:56:35;10.30;99.90
3644;DHT22;1838;50.742;7.158;2023-11-21T04:59:01;10.40;99.90
3644;DHT22;1838;50.742;7.158;2023-11-21T05:01:26;10.40;99.90
3644;DHT22;1838;50.742;7.158;2023-11-21T05:03:52;10.40;99.90
3644;DHT22;1838;50.742;7.158;2023-11-21T05:06:18;10.50;99.90
3644;DHT22;1838;50.742;7.158;2023-11-21T05:08:43;10.50;99.90
3644;DHT22;1838;50.742;7.158;2023-11-21T05:11:09;10.50;99.90
3644;DHT22;1838;50.742;7.158;2023-11-21T05:13:36;10.50;99.90
3644;DHT22;1838;50.742;7.158;2023-11-21T05:16:02;10.40;99.90
3644;DHT22;1838;50.742;7.158;2023-11-21T05:18:29;10.40;99.90
3644;DHT22;1838;50.742;7.158;2023-11-21T05:20:55;10.40;99.90
3644;DHT22;1838;50.742;7.158;2023-11-21T05:23:21;10.40;99.90
3644;DHT22;1838;50.742;7.158;2023-11-21T05:25:46;10.40;99.90
3644;DHT22;1838;50.742;7.158;2023-11-21T05:28:12;10.40;99.90
3644;DHT22;1838;50.742;7.158;2023-11-21T05:30:38;10.40;99.90
3644;DHT22;1838;50.742;7.158;2023-11-21T05:33:06;10.40;99.90
3644;DHT22;1838;50.742;7.158;2023-11-21T05:35:32;10.30;99.90
3644;DHT22;1838;50.742;7.158;2023-11-21T05:37:57;10.30;99.90
3644;DHT22;1838;50.742;7.158;2023-11-21T05:40:23;10.40;99.90
3644;DHT22;1838;50.742;7.158;2023-11-21T05:42:48;10.40;99.90
3644;DHT22;1838;50.742;7.158;2023-11-21T05:45:14;10.40;99.90
3644;DHT22;1838;50.742;7.158;2023-11-21T05:47:44;10.20;99.90
3644;DHT22;1838;50.742;7.158;2023-11-21T05:50:12;10.10;99.90
3644;DHT22;1838;50.742;7.158;2023-11-21T05:52:41;10.10;99.90
3644;DHT22;1838;50.742;7.158;2023-11-21T05:55:07;10.10;99.90
3644;DHT22;1838;50.742;7.158;2023-11-21T05:57:37;10.10;99.90
3644;DHT22;1838;50.742;7.158;2023-11-21T06:00:05;10.10;99.90
3644;DHT22;1838;50.742;7.158;2023-11-21T06:02:37;10.10;99.90
3644;DHT22;1838;50.742;7.158;2023-11-21T06:05:03;10.20;99.90
3644;DHT22;1838;50.742;7.158;2023-11-21T06:07:29;10.00;99.90
3644;DHT22;1838;50.742;7.158;2023-11-21T06:09:55;10.20;99.90
3644;DHT22;1838;50.742;7.158;2023-11-21T06:12:20;10.20;99.90
3644;DHT22;1838;50.742;7.158;2023-11-21T06:14:46;10.20;99.90
3644;DHT22;1838;50.742;7.158;2023-11-21T06:17:11;10.30;99.90
3644;DHT22;1838;50.742;7.158;2023-11-21T06:19:37;10.30;99.90
3644;DHT22;1838;50.742;7.158;2023-11-21T06:22:02;10.30;99.90
3644;DHT22;1838;50.742;7.158;2023-11-21T06:24:28;10.30;99.90
3644;DHT22;1838;50.742;7.158;2023-11-21T06:26:53;10.40;99.90
3644;DHT22;1838;50.742;7.158;2023-11-21T06:29:19;10.40;99.90
3644;DHT22;1838;50.742;7.158;2023-11-21T06:31:44;10.40;99.90
3644;DHT22;1838;50.742;7.158;2023-11-21T06:34:11;10.40;99.90
3644;DHT22;1838;50.742;7.158;2023-11-21T06:36:37;10.40;99.90
3644;DHT22;1838;50.742;7.158;2023-11-21T06:39:03;10.30;99.90
3644;DHT22;1838;50.742;7.158;2023-11-21T06:41:34;10.30;99.90
3644;DHT22;1838;50.742;7.158;2023-11-21T06:44:00;10.30;99.90
3644;DHT22;1838;50.742;7.158;2023-11-21T06:46:25;10.40;99.90
3644;DHT22;1838;50.742;7.158;2023-11-21T06:48:51;10.40;99.90
3644;DHT22;1838;50.742;7.158;2023-11-21T06:51:16;10.40;99.90
3644;DHT22;1838;50.742;7.158;2023-11-21T06:53:42;10.40;99.90
3644;DHT22;1838;50.742;7.158;2023-11-21T06:56:17;10.40;99.90
3644;DHT22;1838;50.742;7.158;2023-11-21T06:58:45;10.40;99.90
3644;DHT22;1838;50.742;7.158;2023-11-21T07:01:12;10.40;99.90
3644;DHT22;1838;50.742;7.158;2023-11-21T07:03:37;10.40;99.90
3644;DHT22;1838;50.742;7.158;2023-11-21T07:06:04;10.40;99.90
3644;DHT22;1838;50.742;7.158;2023-11-21T07:08:29;10.40;99.90
3644;DHT22;1838;50.742;7.158;2023-11-21T07:10:55;10.40;99.90
3644;DHT22;1838;50.742;7.158;2023-11-21T07:13:20;10.40;99.90
3644;DHT22;1838;50.742;7.158;2023-11-21T07:15:47;10.40;99.90
3644;DHT22;1838;50.742;7.158;2023-11-21T07:18:13;10.40;99.90
3644;DHT22;1838;50.742;7.158;2023-11-21T07:20:39;10.40;99.90
3644;DHT22;1838;50.742;7.158;2023-11-21T07:23:04;10.50;99.90
3644;DHT22;1838;50.742;7.158;2023-11-21T07:25:31;10.50;99.90
3644;DHT22;1838;50.742;7.158;2023-11-21T07:27:57;10.50;99.90
3644;DHT22;1838;50.742;7.158;2023-11-21T07:30:22;10.50;99.90
3644;DHT22;1838;50.742;7.158;2023-11-21T07:32:48;10.50;99.90
3644;DHT22;1838;50.742;7.158;2023-11-21T07:35:14;10.50;99.90
3644;DHT22;1838;50.742;7.158;2023-11-21T07:37:40;10.50;99.90
3644;DHT22;1838;50.742;7.158;2023-11-21T07:40:06;10.60;99.90
3644;DHT22;1838;50.742;7.158;2023-11-21T07:42:34;10.50;99.90
3644;DHT22;1838;50.742;7.158;2023-11-21T07:44:59;10.50;99.90
3644;DHT22;1838;50.742;7.158;2023-11-21T07:47:25;10.50;99.90
3644;DHT22;1838;50.742;7.158;2023-11-21T07:49:53;10.50;99.90
3644;DHT22;1838;50.742;7.158;2023-11-21T07:52:18;10.50;99.90
3644;DHT22;1838;50.742;7.158;2023-11-21T07:54:46;10.50;99.90
3644;DHT22;1838;50.742;7.158;2023-11-21T07:57:12;10.60;99.90
3644;DHT22;1838;50.742;7.158;2023-11-21T07:59:41;10.60;99.90
3644;DHT22;1838;50.742;7.158;2023-11-21T08:02:07;10.50;99.90
3644;DHT22;1838;50.742;7.158;2023-11-21T08:04:33;10.60;99.90
3644;DHT22;1838;50.742;7.158;2023-11-21T08:06:59;10.60;99.90
3644;DHT22;1838;50.742;7.158;2023-11-21T08:09:25;10.60;99.90
3644;DHT22;1838;50.742;7.158;2023-11-21T08:11:51;10.60;99.90
3644;DHT22;1838;50.742;7.158;2023-11-21T08:14:18;10.70;99.90
3644;DHT22;1838;50.742;7.158;2023-11-21T08:16:44;10.70;99.90
3644;DHT22;1838;50.742;7.158;2023-11-21T08:19:10;10.80;99.90
3644;DHT22;1838;50.742;7.158;2023-11-21T08:21:36;10.70;99.90
3644;DHT22;1838;50.742;7.158;2023-11-21T08:24:03;10.80;99.90
3644;DHT22;1838;50.742;7.158;2023-11-21T08:26:29;10.80;99.90
3644;DHT22;1838;50.742;7.158;2023-11-21T08:28:55;10.90;99.90
3644;DHT22;1838;50.742;7.158;2023-11-21T08:31:25;11.00;99.90
3644;DHT22;1838;50.742;7.158;2023-11-21T08:33:51;11.00;99.90
3644;DHT22;1838;50.742;7.158;2023-11-21T08:36:17;11.10;99.90
3644;DHT22;1838;50.742;7.158;2023-11-21T08:38:42;11.20;99.90
3644;DHT22;1838;50.742;7.158;2023-11-21T08:41:08;11.20;99.90
3644;DHT22;1838;50.742;7.158;2023-11-21T08:43:35;11.30;99.90
3644;DHT22;1838;50.742;7.158;2023-11-21T08:46:01;11.30;99.90
3644;DHT22;1838;50.742;7.158;2023-11-21T08:48:26;11.30;99.90
3644;DHT22;1838;50.742;7.158;2023-11-21T08:50:53;11.40;99.90
3644;DHT22;1838;50.742;7.158;2023-11-21T08:53:19;11.50;99.90
3644;DHT22;1838;50.742;7.158;2023-11-21T08:55:45;11.40;99.90
3644;DHT22;1838;50.742;7.158;2023-11-21T08:58:10;11.40;99.90
3644;DHT22;1838;50.742;7.158;2023-11-21T09:00:37;11.40;99.90
3644;DHT22;1838;50.742;7.158;2023-11-21T09:03:04;11.50;99.90
3644;DHT22;1838;50.742;7.158;2023-11-21T09:05:34;11.50;99.90
3644;DHT22;1838;50.742;7.158;2023-11-21T09:07:59;11.50;99.90
3644;DHT22;1838;50.742;7.158;2023-11-21T09:10:25;11.50;99.90
3644;DHT22;1838;50.742;7.158;2023-11-21T09:12:50;11.60;99.90
3644;DHT22;1838;50.742;7.158;2023-11-21T09:15:17;11.60;99.90
3644;DHT22;1838;50.742;7.158;2023-11-21T09:17:42;11.60;99.90
3644;DHT22;1838;50.742;7.158;2023-11-21T09:20:10;11.60;99.90
3644;DHT22;1838;50.742;7.158;2023-11-21T09:22:35;11.50;99.90
3644;DHT22;1838;50.742;7.158;2023-11-21T09:25:01;11.50;99.90
3644;DHT22;1838;50.742;7.158;2023-11-21T09:27:31;11.50;99.90
3644;DHT22;1838;50.742;7.158;2023-11-21T09:29:56;11.60;99.90
3644;DHT22;1838;50.742;7.158;2023-11-21T09:32:23;11.60;99.90
3644;DHT22;1838;50.742;7.158;2023-11-21T09:34:49;11.50;99.90
3644;DHT22;1838;50.742;7.158;2023-11-21T09:37:16;11.50;99.90
3644;DHT22;1838;50.742;7.158;2023-11-21T09:39:41;11.60;99.90
3644;DHT22;1838;50.742;7.158;2023-11-21T09:42:32;11.60;99.90
3644;DHT22;1838;50.742;7.158;2023-11-21T09:45:15;11.70;99.90
3644;DHT22;1838;50.742;7.158;2023-11-21T09:47:43;11.70;99.90
3644;DHT22;1838;50.742;7.158;2023-11-21T09:50:09;11.70;99.90
3644;DHT22;1838;50.742;7.158;2023-11-21T09:55:16;11.70;99.90
3644;DHT22;1838;50.742;7.158;2023-11-21T09:57:44;11.70;99.90
3644;DHT22;1838;50.742;7.158;2023-11-21T10:00:11;11.70;99.90
3644;DHT22;1838;50.742;7.158;2023-11-21T10:02:38;11.70;99.90
3644;DHT22;1838;50.742;7.158;2023-11-21T10:05:06;11.70;99.90
3644;DHT22;1838;50.742;7.158;2023-11-21T10:07:34;11.80;99.90
3644;DHT22;1838;50.742;7.158;2023-11-21T10:10:00;11.80;99.90
3644;DHT22;1838;50.742;7.158;2023-11-21T10:12:28;11.80;99.90
3644;DHT22;1838;50.742;7.158;2023-11-21T10:14:54;11.70;99.90
3644;DHT22;1838;50.742;7.158;2023-11-21T10:17:24;11.80;99.90
3644;DHT22;1838;50.742;7.158;2023-11-21T10:19:51;11.90;99.90
3644;DHT22;1838;50.742;7.158;2023-11-21T10:22:20;11.90;99.90
3644;DHT22;1838;50.742;7.158;2023-11-21T10:24:46;11.90;99.90
3644;DHT22;1838;50.742;7.158;2023-11-21T10:27:11;11.90;99.90
3644;DHT22;1838;50.742;7.158;2023-11-21T10:29:39;11.90;99.90
3644;DHT22;1838;50.742;7.158;2023-11-21T10:32:05;12.00;99.90
3644;DHT22;1838;50.742;7.158;2023-11-21T10:34:31;12.00;99.90
3644;DHT22;1838;50.742;7.158;2023-11-21T10:36:57;11.80;99.90
3644;DHT22;1838;50.742;7.158;2023-11-21T10:39:24;11.80;99.90
3644;DHT22;1838;50.742;7.158;2023-11-21T10:41:53;11.80;99.90
3644;DHT22;1838;50.742;7.158;2023-11-21T10:44:20;11.80;99.90
3644;DHT22;1838;50.742;7.158;2023-11-21T10:46:53;11.90;99.90
3644;DHT22;1838;50.742;7.158;2023-11-21T10:49:22;11.90;99.90
3644;DHT22;1838;50.742;7.158;2023-11-21T10:51:50;11.90;99.90
3644;DHT22;1838;50.742;7.158;2023-11-21T10:54:20;11.90;99.90
3644;DHT22;1838;50.742;7.158;2023-11-21T10:56:50;12.00;99.90
3644;DHT22;1838;50.742;7.158;2023-11-21T10:59:17;11.90;99.90
3644;DHT22;1838;50.742;7.158;2023-11-21T11:01:45;12.00;99.90
3644;DHT22;1838;50.742;7.158;2023-11-21T11:04:11;12.10;99.90
3644;DHT22;1838;50.742;7.158;2023-11-21T11:06:47;12.10;99.90
3644;DHT22;1838;50.742;7.158;2023-11-21T11:09:17;12.00;99.90
3644;DHT22;1838;50.742;7.158;2023-11-21T11:11:42;12.00;99.90
3644;DHT22;1838;50.742;7.158;2023-11-21T11:14:13;12.10;99.90
3644;DHT22;1838;50.742;7.158;2023-11-21T11:16:39;12.10;99.90
3644;DHT22;1838;50.742;7.158;2023-11-21T11:19:09;12.10;99.90
3644;DHT22;1838;50.742;7.158;2023-11-21T11:21:43;12.20;99.90
3644;DHT22;1838;50.742;7.158;2023-11-21T11:24:41;12.20;99.90
3644;DHT22;1838;50.742;7.158;2023-11-21T11:30:41;12.30;99.90
3644;DHT22;1838;50.742;7.158;2023-11-21T11:33:41;12.40;99.90
3644;DHT22;1838;50.742;7.158;2023-11-21T11:36:26;12.30;99.90
3644;DHT22;1838;50.742;7.158;2023-11-21T11:38:53;12.40;99.90
3644;DHT22;1838;50.742;7.158;2023-11-21T11:41:30;12.30;99.90
3644;DHT22;1838;50.742;7.158;2023-11-21T11:43:58;12.20;99.90
3644;DHT22;1838;50.742;7.158;2023-11-21T11:46:44;12.30;99.90
3644;DHT22;1838;50.742;7.158;2023-11-21T11:49:32;12.10;99.90
3644;DHT22;1838;50.742;7.158;2023-11-21T11:55:01;12.10;99.90
3644;DHT22;1838;50.742;7.158;2023-11-21T11:57:30;12.10;99.90
3644;DHT22;1838;50.742;7.158;2023-11-21T12:02:44;12.10;99.90
3644;DHT22;1838;50.742;7.158;2023-11-21T12:05:11;12.00;99.90
3644;DHT22;1838;50.742;7.158;2023-11-21T12:07:55;12.00;99.90
3644;DHT22;1838;50.742;7.158;2023-11-21T12:10:26;12.00;99.90
3644;DHT22;1838;50.742;7.158;2023-11-21T12:12:55;12.00;99.90
3644;DHT22;1838;50.742;7.158;2023-11-21T12:15:21;12.00;99.90
3644;DHT22;1838;50.742;7.158;2023-11-21T12:17:48;12.10;99.90
3644;DHT22;1838;50.742;7.158;2023-11-21T12:20:15;12.00;99.90
3644;DHT22;1838;50.742;7.158;2023-11-21T12:22:46;11.90;99.90
3644;DHT22;1838;50.742;7.158;2023-11-21T12:25:16;11.90;99.90
3644;DHT22;1838;50.742;7.158;2023-11-21T12:27:48;11.80;99.90
3644;DHT22;1838;50.742;7.158;2023-11-21T12:30:15;11.80;99.90
3644;DHT22;1838;50.742;7.158;2023-11-21T12:32:41;11.60;99.90
3644;DHT22;1838;50.742;7.158;2023-11-21T12:35:10;11.60;99.90
3644;DHT22;1838;50.742;7.158;2023-11-21T12:37:38;11.70;99.90
3644;DHT22;1838;50.742;7.158;2023-11-21T12:40:05;11.60;99.90
3644;DHT22;1838;50.742;7.158;2023-11-21T12:42:33;11.60;99.90
3644;DHT22;1838;50.742;7.158;2023-11-21T12:47:47;11.50;99.90
3644;DHT22;1838;50.742;7.158;2023-11-21T12:50:15;11.60;99.90
3644;DHT22;1838;50.742;7.158;2023-11-21T12:52:51;11.60;99.90
3644;DHT22;1838;50.742;7.158;2023-11-21T12:55:21;11.60;99.90
3644;DHT22;1838;50.742;7.158;2023-11-21T12:57:54;11.80;99.90
3644;DHT22;1838;50.742;7.158;2023-11-21T13:00:34;11.80;99.90
3644;DHT22;1838;50.742;7.158;2023-11-21T13:03:03;11.80;99.90
3644;DHT22;1838;50.742;7.158;2023-11-21T13:05:35;12.00;99.90
3644;DHT22;1838;50.742;7.158;2023-11-21T13:08:05;12.00;99.90
3644;DHT22;1838;50.742;7.158;2023-11-21T13:10:34;11.90;99.90
3644;DHT22;1838;50.742;7.158;2023-11-21T13:13:02;11.90;99.90
3644;DHT22;1838;50.742;7.158;2023-11-21T13:15:31;11.90;99.90
3644;DHT22;1838;50.742;7.158;2023-11-21T13:17:57;12.00;99.90
3644;DHT22;1838;50.742;7.158;2023-11-21T13:20:23;12.00;99.90
3644;DHT22;1838;50.742;7.158;2023-11-21T13:22:51;12.00;99.90
3644;DHT22;1838;50.742;7.158;2023-11-21T13:25:21;11.90;99.90
3644;DHT22;1838;50.742;7.158;2023-11-21T13:27:47;11.90;99.90
3644;DHT22;1838;50.742;7.158;2023-11-21T13:30:13;12.00;99.90
3644;DHT22;1838;50.742;7.158;2023-11-21T13:32:45;12.00;99.90
3644;DHT22;1838;50.742;7.158;2023-11-21T13:35:12;12.00;99.90
3644;DHT22;1838;50.742;7.158;2023-11-21T13:37:48;12.10;99.90
3644;DHT22;1838;50.742;7.158;2023-11-21T13:40:15;12.10;99.90
3644;DHT22;1838;50.742;7.158;2023-11-21T13:42:45;12.10;99.90
3644;DHT22;1838;50.742;7.158;2023-11-21T13:45:11;12.10;99.90
3644;DHT22;1838;50.742;7.158;2023-11-21T13:47:38;12.20;99.90
3644;DHT22;1838;50.742;7.158;2023-11-21T13:50:05;12.20;99.90
3644;DHT22;1838;50.742;7.158;2023-11-21T13:52:39;12.20;99.90
3644;DHT22;1838;50.742;7.158;2023-11-21T13:55:04;12.30;99.90
3644;DHT22;1838;50.742;7.158;2023-11-21T13:57:33;12.20;99.90
3644;DHT22;1838;50.742;7.158;2023-11-21T13:59:58;12.20;99.90
3644;DHT22;1838;50.742;7.158;2023-11-21T14:02:24;12.20;99.90
3644;DHT22;1838;50.742;7.158;2023-11-21T14:04:57;11.90;99.90
3644;DHT22;1838;50.742;7.158;2023-11-21T14:07:26;12.00;99.90
3644;DHT22;1838;50.742;7.158;2023-11-21T14:10:00;12.00;99.90
3644;DHT22;1838;50.742;7.158;2023-11-21T14:12:25;11.90;99.90
3644;DHT22;1838;50.742;7.158;2023-11-21T14:14:51;11.90;99.90
3644;DHT22;1838;50.742;7.158;2023-11-21T14:17:16;11.90;99.90
3644;DHT22;1838;50.742;7.158;2023-11-21T14:19:42;12.00;99.90
3644;DHT22;1838;50.742;7.158;2023-11-21T14:22:26;12.00;99.90
3644;DHT22;1838;50.742;7.158;2023-11-21T14:24:52;12.00;99.90
3644;DHT22;1838;50.742;7.158;2023-11-21T14:27:17;12.10;99.90
3644;DHT22;1838;50.742;7.158;2023-11-21T14:29:43;12.10;99.90
3644;DHT22;1838;50.742;7.158;2023-11-21T14:32:10;12.20;99.90
3644;DHT22;1838;50.742;7.158;2023-11-21T14:34:35;12.20;99.90
3644;DHT22;1838;50.742;7.158;2023-11-21T14:37:02;12.30;99.90
3644;DHT22;1838;50.742;7.158;2023-11-21T14:39:30;12.20;99.90
3644;DHT22;1838;50.742;7.158;2023-11-21T14:41:56;12.20;99.90
3644;DHT22;1838;50.742;7.158;2023-11-21T14:44:23;12.10;99.90
3644;DHT22;1838;50.742;7.158;2023-11-21T14:46:52;12.20;99.90
3644;DHT22;1838;50.742;7.158;2023-11-21T14:49:18;12.20;99.90
3644;DHT22;1838;50.742;7.158;2023-11-21T14:51:46;12.20;99.90
3644;DHT22;1838;50.742;7.158;2023-11-21T14:54:29;12.10;99.90
3644;DHT22;1838;50.742;7.158;2023-11-21T14:57:13;12.10;99.90
3644;DHT22;1838;50.742;7.158;2023-11-21T14:59:48;12.20;99.90
3644;DHT22;1838;50.742;7.158;2023-11-21T15:02:17;12.10;99.90
3644;DHT22;1838;50.742;7.158;2023-11-21T15:04:47;12.20;99.90
3644;DHT22;1838;50.742;7.158;2023-11-21T15:07:14;12.20;99.90
3644;DHT22;1838;50.742;7.158;2023-11-21T15:09:40;12.10;99.90
3644;DHT22;1838;50.742;7.158;2023-11-21T15:12:10;12.20;99.90
3644;DHT22;1838;50.742;7.158;2023-11-21T15:14:49;12.20;99.90
3644;DHT22;1838;50.742;7.158;2023-11-21T15:17:18;12.20;99.90
3644;DHT22;1838;50.742;7.158;2023-11-21T15:19:52;12.30;99.90
3644;DHT22;1838;50.742;7.158;2023-11-21T15:22:18;12.30;99.90
3644;DHT22;1838;50.742;7.158;2023-11-21T15:24:44;12.40;99.90
3644;DHT22;1838;50.742;7.158;2023-11-21T15:27:12;12.30;99.90
3644;DHT22;1838;50.742;7.158;2023-11-21T15:29:40;12.20;99.90
3644;DHT22;1838;50.742;7.158;2023-11-21T15:32:08;12.30;99.90
3644;DHT22;1838;50.742;7.158;2023-11-21T15:34:35;12.30;99.90
3644;DHT22;1838;50.742;7.158;2023-11-21T15:37:01;12.30;99.90
3644;DHT22;1838;50.742;7.158;2023-11-21T15:39:28;12.20;99.90
3644;DHT22;1838;50.742;7.158;2023-11-21T15:41:56;12.10;99.90
3644;DHT22;1838;50.742;7.158;2023-11-21T15:44:22;12.10;99.90
3644;DHT22;1838;50.742;7.158;2023-11-21T15:46:49;12.00;99.90
3644;DHT22;1838;50.742;7.158;2023-11-21T15:49:14;11.90;99.90
3644;DHT22;1838;50.742;7.158;2023-11-21T15:51:43;12.00;99.90
3644;DHT22;1838;50.742;7.158;2023-11-21T15:54:12;12.00;99.90
3644;DHT22;1838;50.742;7.158;2023-11-21T15:56:38;11.90;99.90
3644;DHT22;1838;50.742;7.158;2023-11-21T15:59:04;11.90;99.90
3644;DHT22;1838;50.742;7.158;2023-11-21T16:01:30;11.80;99.90
3644;DHT22;1838;50.742;7.158;2023-11-21T16:03:57;11.80;99.90
3644;DHT22;1838;50.742;7.158;2023-11-21T16:06:23;11.80;99.90
3644;DHT22;1838;50.742;7.158;2023-11-21T16:08:49;11.80;99.90
3644;DHT22;1838;50.742;7.158;2023-11-21T16:11:14;11.80;99.90
3644;DHT22;1838;50.742;7.158;2023-11-21T16:13:40;11.90;99.90
3644;DHT22;1838;50.742;7.158;2023-11-21T16:16:06;11.90;99.90
3644;DHT22;1838;50.742;7.158;2023-11-21T16:18:32;11.90;99.90